Stoke Newington, United Kingdom
Current Conditions -  °F | °C
As of 12:50 AM on Wednesday 28 Jan 2015 (Local Time) from EGLC Reporting Station
Broken Clouds Broken Clouds  
Wind Chill:   Ceiling: 2400
Heat Index:   Visibility: 6mi
Dew Point:   Wind: 12mph
Humidity: 71%   Direction: 230°SW
Pressure: 30.03"   Gusts: NA
Location:  51.56°N, 0.08°W
Report Text: EGLC 280050Z AUTO 23010KT 9999 BKN024/// 07/02 Q1017
Loading
Personal Weather Stations






























Interactive Weather Map New forecast layout! Learn more

10-Day Weather Forecast

Advertisements
Track Severe Weather on mobile